createdAt,value
2017-05-29T00:05:53.161Z,22.50
2017-05-29T00:08:21.121Z,22.40
2017-05-29T00:10:49.063Z,22.40
2017-05-29T00:13:17.414Z,22.40
2017-05-29T00:15:45.351Z,22.40
2017-05-29T00:18:13.663Z,22.40
2017-05-29T00:20:42.051Z,22.30
2017-05-29T00:23:10.382Z,22.30
2017-05-29T00:25:38.323Z,22.20
2017-05-29T00:30:35.939Z,22.10
2017-05-29T00:33:04.245Z,22.10
2017-05-29T00:35:32.226Z,22.10
2017-05-29T00:42:58.761Z,22.10
2017-05-29T00:45:26.715Z,22.00
2017-05-29T00:47:54.668Z,22.00
2017-05-29T00:50:23.419Z,22.00
2017-05-29T00:52:51.745Z,21.90
2017-05-29T00:55:20.059Z,22.00
2017-05-29T00:57:48.407Z,21.90
2017-05-29T01:00:16.724Z,21.90
2017-05-29T01:02:45.779Z,21.90
2017-05-29T01:05:14.135Z,21.90
2017-05-29T01:07:42.464Z,21.90
2017-05-29T01:10:10.415Z,21.80
2017-05-29T01:12:38.775Z,21.90
2017-05-29T01:15:06.718Z,21.80
2017-05-29T01:17:35.391Z,21.90
2017-05-29T01:22:32.282Z,21.80
2017-05-29T01:25:00.587Z,21.80
2017-05-29T01:32:26.750Z,21.80
2017-05-29T01:34:55.489Z,21.90
2017-05-29T01:37:23.434Z,21.90
2017-05-29T01:39:51.410Z,21.90
2017-05-29T01:42:19.791Z,21.90
2017-05-29T01:44:47.723Z,21.90
2017-05-29T01:47:16.771Z,22.00
2017-05-29T01:59:41.127Z,22.10
2017-05-29T02:02:10.171Z,22.00
2017-05-29T02:04:38.552Z,22.00
2017-05-29T02:07:06.491Z,22.00
2017-05-29T02:09:34.431Z,22.00
2017-05-29T02:12:02.418Z,22.00
2017-05-29T02:14:30.726Z,22.00
2017-05-29T02:16:58.666Z,22.00
2017-05-29T02:19:27.031Z,22.00
2017-05-29T02:21:55.350Z,22.00
2017-05-29T02:24:23.296Z,22.00
2017-05-29T02:26:51.672Z,22.00
2017-05-29T02:29:20.008Z,21.90
2017-05-29T02:31:48.334Z,21.90
2017-05-29T02:34:16.343Z,21.90
2017-05-29T02:36:44.651Z,21.80
2017-05-29T02:39:12.958Z,21.80
2017-05-29T02:41:41.320Z,21.80
2017-05-29T02:44:10.014Z,21.80
2017-05-29T02:46:37.958Z,21.90
2017-05-29T02:49:06.314Z,21.80
2017-05-29T02:51:34.251Z,21.70
2017-05-29T02:54:02.558Z,21.70
2017-05-29T02:56:30.558Z,21.80
2017-05-29T02:58:58.863Z,21.80
2017-05-29T03:01:26.823Z,21.80
2017-05-29T03:03:55.198Z,21.80
2017-05-29T03:06:23.526Z,21.80
2017-05-29T03:08:51.876Z,21.80
2017-05-29T03:11:19.864Z,21.80
2017-05-29T03:13:48.180Z,21.80
2017-05-29T03:16:16.526Z,21.70
2017-05-29T03:18:44.543Z,21.70
2017-05-29T03:21:12.854Z,21.70
2017-05-29T03:23:41.186Z,21.60
2017-05-29T03:26:09.949Z,21.60
2017-05-29T03:28:37.892Z,21.50
2017-05-29T03:31:06.195Z,21.50
2017-05-29T03:33:34.178Z,21.50
2017-05-29T03:36:02.480Z,21.50
2017-05-29T03:38:30.415Z,21.40
2017-05-29T03:40:58.783Z,21.40
2017-05-29T03:43:27.107Z,21.40
2017-05-29T03:45:55.049Z,21.40
2017-05-29T03:48:23.416Z,21.40
2017-05-29T03:50:51.757Z,21.40
2017-05-29T03:53:19.715Z,21.40
2017-05-29T03:55:48.072Z,21.40
2017-05-29T03:58:16.384Z,21.40
2017-05-29T04:00:44.686Z,21.40
2017-05-29T04:03:12.678Z,21.40
2017-05-29T04:05:41.732Z,21.40
2017-05-29T04:08:09.683Z,21.40
2017-05-29T04:15:36.580Z,21.40
2017-05-29T04:18:04.927Z,21.40
2017-05-29T04:20:33.230Z,21.40
2017-05-29T04:23:01.534Z,21.40
2017-05-29T04:25:29.891Z,21.40
2017-05-29T04:30:27.095Z,21.50
2017-05-29T04:32:55.484Z,21.50
2017-05-29T04:40:21.295Z,21.50
2017-05-29T04:42:49.246Z,21.60
2017-05-29T04:45:17.555Z,21.50
2017-05-29T04:47:45.530Z,21.50
2017-05-29T04:50:13.830Z,21.60
2017-05-29T04:52:41.778Z,21.60
2017-05-29T04:55:10.139Z,21.60
2017-05-29T04:57:38.079Z,21.70
2017-05-29T05:00:06.011Z,21.80
2017-05-29T05:02:34.363Z,21.90
2017-05-29T05:05:02.291Z,21.90
2017-05-29T05:07:30.599Z,21.90
2017-05-29T05:09:58.956Z,22.00
2017-05-29T05:12:27.272Z,22.00
2017-05-29T05:14:55.609Z,22.10
2017-05-29T05:17:23.629Z,22.10
2017-05-29T05:19:51.964Z,22.20
2017-05-29T05:22:20.272Z,22.20
2017-05-29T05:24:49.390Z,22.30
2017-05-29T05:27:17.327Z,22.30
2017-05-29T05:29:45.638Z,22.40
2017-05-29T05:32:13.619Z,22.50
2017-05-29T05:34:41.563Z,22.60
2017-05-29T05:37:09.879Z,22.70
2017-05-29T05:39:37.860Z,22.70
2017-05-29T05:42:06.167Z,22.80
2017-05-29T05:44:34.103Z,22.90
2017-05-29T05:47:02.563Z,22.90
2017-05-29T05:49:30.499Z,23.00
2017-05-29T05:51:58.807Z,23.10
2017-05-29T05:54:27.167Z,23.10
2017-05-29T05:56:55.483Z,23.20
2017-05-29T05:59:23.436Z,23.30
2017-05-29T06:01:51.827Z,23.40
2017-05-29T06:04:20.140Z,23.50
2017-05-29T06:06:48.102Z,23.50
2017-05-29T06:09:16.459Z,23.60
2017-05-29T06:14:13.655Z,23.80
2017-05-29T06:16:41.649Z,23.90
2017-05-29T06:19:09.587Z,24.00
2017-05-29T06:21:37.902Z,24.00
2017-05-29T06:24:05.886Z,24.20
2017-05-29T06:26:34.199Z,24.20
2017-05-29T06:29:02.139Z,24.30
2017-05-29T06:31:30.506Z,24.40
2017-05-29T06:33:58.814Z,24.40
2017-05-29T06:36:27.144Z,24.60
2017-05-29T06:38:55.548Z,24.80
2017-05-29T06:41:23.506Z,25.00
2017-05-29T06:43:51.850Z,25.20
2017-05-29T06:46:19.846Z,25.50
2017-05-29T06:48:48.155Z,25.80
2017-05-29T06:51:16.463Z,26.00
2017-05-29T06:53:45.547Z,26.20
2017-05-29T06:56:13.479Z,26.60
2017-05-29T06:58:41.432Z,27.00
2017-05-29T07:01:09.414Z,27.10
2017-05-29T07:03:37.723Z,27.20
2017-05-29T07:06:05.665Z,27.30
2017-05-29T07:08:34.019Z,27.60
2017-05-29T07:11:02.323Z,27.60
2017-05-29T07:13:30.255Z,27.80
2017-05-29T07:15:58.607Z,27.90
2017-05-29T07:18:26.915Z,28.00
2017-05-29T07:20:55.229Z,28.00
2017-05-29T07:23:23.587Z,28.30
2017-05-29T07:25:51.532Z,28.20
2017-05-29T07:28:19.838Z,28.20
2017-05-29T07:30:48.193Z,28.30
2017-05-29T07:33:16.865Z,28.20
2017-05-29T07:35:45.167Z,28.40
2017-05-29T07:38:13.151Z,28.40
2017-05-29T07:40:41.484Z,28.40
2017-05-29T07:43:09.425Z,28.00
2017-05-29T07:45:37.415Z,28.10
2017-05-29T07:48:05.715Z,28.10
2017-05-29T07:50:34.026Z,28.30
2017-05-29T07:53:02.007Z,28.30
2017-05-29T07:55:30.311Z,28.30
2017-05-29T07:57:58.623Z,28.40
2017-05-29T08:00:26.987Z,28.70
2017-05-29T08:02:55.295Z,28.90
2017-05-29T08:05:23.624Z,29.10
2017-05-29T08:07:51.636Z,29.10
2017-05-29T08:10:19.572Z,29.30
2017-05-29T08:12:47.875Z,29.50
2017-05-29T08:15:16.228Z,29.50
2017-05-29T08:17:44.902Z,29.40
2017-05-29T08:20:13.212Z,29.60
2017-05-29T08:22:41.225Z,29.70
2017-05-29T08:25:09.161Z,29.70
2017-05-29T08:27:37.475Z,29.80
2017-05-29T08:30:05.843Z,29.90
2017-05-29T08:32:33.779Z,29.80
2017-05-29T08:35:01.711Z,29.90
2017-05-29T08:37:30.427Z,30.00
2017-05-29T08:44:56.936Z,30.20
2017-05-29T08:47:25.255Z,30.20
2017-05-29T08:49:53.583Z,30.30
2017-05-29T08:52:21.615Z,29.90
2017-05-29T08:54:49.918Z,30.40
2017-05-29T08:57:18.956Z,30.50
2017-05-29T08:59:46.932Z,30.60
2017-05-29T09:02:14.868Z,30.90
2017-05-29T09:04:43.167Z,31.20
2017-05-29T09:07:11.159Z,31.60
2017-05-29T09:09:39.456Z,31.90
2017-05-29T09:12:07.390Z,32.20
2017-05-29T09:14:35.731Z,32.50
2017-05-29T09:17:04.030Z,32.20
2017-05-29T09:19:32.326Z,32.00
2017-05-29T09:22:00.692Z,32.00
2017-05-29T09:24:28.623Z,31.80
2017-05-29T09:26:56.923Z,32.00
2017-05-29T09:29:25.320Z,32.10
2017-05-29T09:31:53.640Z,32.30
2017-05-29T09:34:21.611Z,31.80
2017-05-29T09:36:49.955Z,32.20
2017-05-29T09:39:18.626Z,32.30
2017-05-29T09:41:46.927Z,32.60
2017-05-29T09:44:14.931Z,32.80
2017-05-29T09:46:42.872Z,33.10
2017-05-29T09:49:11.194Z,33.10
2017-05-29T09:51:39.187Z,33.00
2017-05-29T09:54:07.483Z,33.30
2017-05-29T09:56:35.779Z,33.50
2017-05-29T09:59:03.750Z,33.50
2017-05-29T10:01:31.679Z,32.80
2017-05-29T10:04:00.351Z,33.00
2017-05-29T10:06:28.695Z,33.20
2017-05-29T10:08:57.003Z,33.30
2017-05-29T10:11:24.962Z,33.30
2017-05-29T10:16:22.232Z,33.50
2017-05-29T10:18:50.549Z,33.20
2017-05-29T10:21:18.531Z,33.60
2017-05-29T10:23:46.830Z,33.80
2017-05-29T10:26:14.762Z,34.10
2017-05-29T10:28:43.110Z,34.10
2017-05-29T10:31:11.047Z,33.80
2017-05-29T10:33:38.975Z,32.90
2017-05-29T10:36:07.314Z,33.00
2017-05-29T10:38:35.614Z,33.50
2017-05-29T10:41:03.910Z,33.90
2017-05-29T10:43:32.254Z,34.10
2017-05-29T10:46:00.187Z,34.30
2017-05-29T10:48:28.483Z,34.50
2017-05-29T10:50:56.840Z,34.70
2017-05-29T10:53:25.901Z,34.80
2017-05-29T10:55:54.223Z,34.90
2017-05-29T10:58:22.222Z,35.10
2017-05-29T11:00:50.150Z,35.00
2017-05-29T11:03:18.455Z,35.10
2017-05-29T11:05:46.803Z,35.10
2017-05-29T11:10:44.791Z,34.40
2017-05-29T11:13:12.770Z,34.50
2017-05-29T11:15:41.092Z,34.10
2017-05-29T11:18:09.394Z,34.20
2017-05-29T11:20:37.380Z,34.20
2017-05-29T11:23:05.319Z,34.60
2017-05-29T11:25:34.359Z,34.90
2017-05-29T11:28:02.343Z,34.90
2017-05-29T11:30:30.275Z,35.10
2017-05-29T11:32:58.571Z,34.90
2017-05-29T11:35:26.928Z,34.80
2017-05-29T11:37:55.234Z,35.10
2017-05-29T11:40:24.304Z,34.90
2017-05-29T11:42:52.326Z,35.00
2017-05-29T11:45:20.254Z,35.20
2017-05-29T11:47:48.562Z,35.40
2017-05-29T11:50:16.549Z,35.40
2017-05-29T11:52:44.479Z,35.70
2017-05-29T11:55:12.781Z,35.20
2017-05-29T11:57:41.146Z,35.40
2017-05-29T12:00:09.074Z,35.50
2017-05-29T12:02:37.371Z,35.60
2017-05-29T12:05:05.340Z,35.40
2017-05-29T12:07:34.011Z,35.70
2017-05-29T12:10:01.935Z,35.90
2017-05-29T12:12:30.298Z,36.10
2017-05-29T12:14:58.598Z,36.20
2017-05-29T12:17:26.912Z,36.50
2017-05-29T12:19:55.284Z,36.60
2017-05-29T12:22:23.978Z,36.70
2017-05-29T12:24:52.291Z,36.70
2017-05-29T12:27:20.299Z,36.80
2017-05-29T12:29:48.267Z,36.80
2017-05-29T12:32:16.567Z,36.80
2017-05-29T12:34:44.539Z,37.10
2017-05-29T12:37:12.465Z,37.10
2017-05-29T12:39:40.785Z,37.20
2017-05-29T12:42:09.126Z,37.20
2017-05-29T12:44:37.423Z,37.10
2017-05-29T12:47:05.723Z,37.10
2017-05-29T12:49:33.691Z,37.00
2017-05-29T12:52:02.003Z,37.10
2017-05-29T12:54:30.318Z,37.20
2017-05-29T12:56:58.658Z,37.20
2017-05-29T12:59:26.595Z,37.30
2017-05-29T13:01:55.645Z,37.40
2017-05-29T13:04:24.014Z,37.30
2017-05-29T13:06:51.951Z,37.20
2017-05-29T13:09:20.256Z,37.40
2017-05-29T13:11:48.227Z,37.60
2017-05-29T13:14:16.155Z,37.60
2017-05-29T13:16:44.460Z,37.70
2017-05-29T13:19:12.991Z,37.70
2017-05-29T13:21:40.935Z,37.80
2017-05-29T13:24:08.868Z,37.70
2017-05-29T13:26:37.211Z,37.70
2017-05-29T13:29:05.515Z,37.20
2017-05-29T13:31:33.816Z,37.10
2017-05-29T13:34:02.167Z,37.10
2017-05-29T13:36:30.100Z,37.30
2017-05-29T13:38:58.395Z,37.40
2017-05-29T13:41:26.756Z,37.40
2017-05-29T13:43:55.064Z,37.30
2017-05-29T13:46:23.764Z,37.30
2017-05-29T13:48:52.119Z,37.30
2017-05-29T13:51:20.052Z,37.50
2017-05-29T13:53:47.983Z,37.70
2017-05-29T13:56:16.330Z,37.70
2017-05-29T13:58:44.259Z,37.60
2017-05-29T14:01:12.577Z,37.20
2017-05-29T14:03:40.557Z,37.10
2017-05-29T14:06:08.855Z,36.90
2017-05-29T14:08:37.156Z,36.70
2017-05-29T14:11:05.512Z,36.20
2017-05-29T14:13:34.183Z,36.00
2017-05-29T14:18:31.411Z,35.70
2017-05-29T14:20:59.338Z,35.40
2017-05-29T14:23:27.646Z,35.30
2017-05-29T14:25:55.634Z,35.10
2017-05-29T14:28:23.608Z,35.00
2017-05-29T14:30:51.941Z,34.70
2017-05-29T14:33:19.937Z,34.60
2017-05-29T14:35:47.882Z,34.60
2017-05-29T14:38:16.187Z,34.60
2017-05-29T14:40:44.170Z,34.60
2017-05-29T14:43:12.494Z,34.40
2017-05-29T14:45:40.444Z,34.30
2017-05-29T14:48:08.799Z,34.20
2017-05-29T14:50:36.735Z,34.10
2017-05-29T14:53:05.414Z,34.00
2017-05-29T14:55:34.407Z,33.90
2017-05-29T15:00:31.240Z,33.90
2017-05-29T15:02:59.211Z,33.80
2017-05-29T15:05:27.160Z,33.70
2017-05-29T15:07:55.480Z,33.60
2017-05-29T15:15:21.682Z,33.30
2017-05-29T15:17:50.042Z,33.30
2017-05-29T15:20:17.986Z,33.20
2017-05-29T15:22:45.923Z,33.20
2017-05-29T15:25:14.284Z,33.20
2017-05-29T15:27:42.957Z,33.10
2017-05-29T15:30:10.895Z,33.00
2017-05-29T15:32:39.254Z,33.00
2017-05-29T15:40:05.755Z,33.00
2017-05-29T15:42:34.087Z,33.00
2017-05-29T15:45:03.160Z,33.10
2017-05-29T15:47:31.148Z,33.00
2017-05-29T15:54:58.023Z,32.80
2017-05-29T15:57:25.955Z,32.70
2017-05-29T15:59:54.268Z,32.80
2017-05-29T16:02:22.623Z,32.70
2017-05-29T16:04:50.563Z,32.70
2017-05-29T16:07:19.063Z,32.60
2017-05-29T16:09:47.571Z,32.60
2017-05-29T16:14:45.967Z,32.60
2017-05-29T16:19:43.599Z,32.50
2017-05-29T16:22:11.546Z,32.60
2017-05-29T16:24:39.953Z,32.60
2017-05-29T16:29:37.159Z,32.60
2017-05-29T16:32:05.158Z,32.50
2017-05-29T16:34:33.495Z,32.50
2017-05-29T16:37:01.443Z,32.50
2017-05-29T16:39:30.196Z,32.50
2017-05-29T16:44:27.788Z,32.50
2017-05-29T16:49:25.053Z,32.40
2017-05-29T16:51:52.990Z,32.40
2017-05-29T16:54:21.370Z,32.30
2017-05-29T16:59:18.944Z,32.30
2017-05-29T17:09:14.811Z,32.30
2017-05-29T17:11:43.117Z,32.20
2017-05-29T17:14:11.056Z,32.10
2017-05-29T17:16:39.777Z,32.10
2017-05-29T17:21:37.799Z,32.00
2017-05-29T17:24:06.179Z,31.90
2017-05-29T17:26:34.483Z,31.90
2017-05-29T17:29:02.796Z,31.90
2017-05-29T17:34:00.419Z,31.60
2017-05-29T17:36:28.747Z,31.70
2017-05-29T17:43:55.367Z,31.60
2017-05-29T17:46:25.540Z,31.50
2017-05-29T17:51:22.760Z,31.30
2017-05-29T17:58:49.695Z,30.80
2017-05-29T18:03:47.349Z,30.70
2017-05-29T18:06:16.043Z,30.60
2017-05-29T18:11:14.106Z,30.60
2017-05-29T18:13:42.047Z,30.50
2017-05-29T18:16:10.411Z,30.50
2017-05-29T18:18:38.714Z,30.50
2017-05-29T18:28:33.426Z,30.20
2017-05-29T18:31:02.539Z,30.20
2017-05-29T18:33:30.847Z,30.30
2017-05-29T18:35:58.787Z,30.20
2017-05-29T18:38:27.158Z,30.20
2017-05-29T18:40:55.121Z,30.20
2017-05-29T18:50:50.269Z,30.10
2017-05-29T18:55:48.033Z,30.10
2017-05-29T18:58:16.737Z,30.00
2017-05-29T19:00:44.747Z,30.00
2017-05-29T19:03:12.716Z,29.90
2017-05-29T19:05:40.719Z,29.80
2017-05-29T19:08:09.456Z,29.80
2017-05-29T19:15:36.008Z,29.20
2017-05-29T19:18:04.747Z,29.00
2017-05-29T19:20:32.741Z,29.00
2017-05-29T19:23:01.128Z,28.90
2017-05-29T19:25:29.069Z,28.90
2017-05-29T19:27:57.755Z,28.90
2017-05-29T19:30:26.131Z,28.90
2017-05-29T19:32:54.439Z,28.90
2017-05-29T19:35:22.758Z,28.80
2017-05-29T19:37:51.879Z,28.80
2017-05-29T19:40:20.187Z,28.80
2017-05-29T19:50:14.903Z,28.70
2017-05-29T19:52:43.303Z,28.70
2017-05-29T19:55:11.605Z,28.70
2017-05-29T19:57:40.335Z,28.60
2017-05-29T20:00:09.072Z,28.60
2017-05-29T20:02:37.379Z,28.60
2017-05-29T20:07:35.520Z,28.50
2017-05-29T20:10:03.839Z,28.50
2017-05-29T20:15:01.483Z,28.40
2017-05-29T20:17:29.481Z,28.40
2017-05-29T20:19:57.811Z,28.30
2017-05-29T20:22:26.555Z,28.30
2017-05-29T20:24:54.512Z,28.30
2017-05-29T20:27:22.508Z,28.20
2017-05-29T20:32:20.183Z,28.10
2017-05-29T20:34:48.146Z,28.00
2017-05-29T20:37:16.543Z,28.00
2017-05-29T20:39:44.496Z,27.90
2017-05-29T20:42:12.481Z,27.90
2017-05-29T20:44:40.946Z,27.80
2017-05-29T20:47:08.888Z,27.70
2017-05-29T20:49:36.832Z,27.70
2017-05-29T20:52:05.235Z,27.60
2017-05-29T20:54:33.666Z,27.60
2017-05-29T20:57:01.219Z,27.50
2017-05-29T21:01:58.559Z,27.40
2017-05-29T21:06:56.178Z,27.30
2017-05-29T21:09:24.491Z,27.30
2017-05-29T21:11:52.804Z,27.20
2017-05-29T21:14:20.796Z,27.20
2017-05-29T21:16:49.124Z,27.10
2017-05-29T21:19:17.443Z,27.10
2017-05-29T21:21:46.175Z,27.00
2017-05-29T21:29:13.260Z,26.80
2017-05-29T21:31:41.199Z,26.80
2017-05-29T21:36:38.843Z,26.70
2017-05-29T21:39:07.151Z,26.70
2017-05-29T21:41:35.839Z,26.60
2017-05-29T21:44:03.836Z,26.60
2017-05-29T21:46:31.812Z,26.60
2017-05-29T21:49:00.152Z,26.50
2017-05-29T21:51:28.522Z,26.50
2017-05-29T21:53:56.462Z,26.40
2017-05-29T22:01:23.379Z,26.30
2017-05-29T22:03:52.054Z,26.20
2017-05-29T22:06:20.437Z,26.10
2017-05-29T22:11:18.410Z,26.10
2017-05-29T22:13:46.779Z,25.90
2017-05-29T22:16:15.464Z,25.90
2017-05-29T22:21:13.108Z,25.80
2017-05-29T22:23:41.416Z,25.80
2017-05-29T22:26:09.724Z,25.70
2017-05-29T22:28:38.448Z,25.70
2017-05-29T22:33:36.407Z,25.70
2017-05-29T22:36:04.434Z,25.60
2017-05-29T22:38:32.807Z,25.60
2017-05-29T22:43:30.111Z,25.50
2017-05-29T22:45:58.052Z,25.50
2017-05-29T22:48:25.997Z,25.50
2017-05-29T22:50:54.718Z,25.40
2017-05-29T22:53:23.031Z,25.40
2017-05-29T22:55:51.354Z,25.30
2017-05-29T22:58:19.739Z,25.30
2017-05-29T23:00:48.792Z,25.30
2017-05-29T23:03:17.095Z,25.30
2017-05-29T23:05:45.083Z,25.20
2017-05-29T23:08:13.388Z,25.20
2017-05-29T23:10:41.703Z,25.20
2017-05-29T23:13:10.060Z,25.20
2017-05-29T23:15:37.998Z,25.10
2017-05-29T23:18:06.331Z,25.10
2017-05-29T23:20:34.706Z,25.00
2017-05-29T23:23:03.039Z,25.00
2017-05-29T23:25:32.447Z,25.00
2017-05-29T23:30:30.143Z,24.90
2017-05-29T23:32:58.458Z,24.80
2017-05-29T23:35:26.439Z,24.80
2017-05-29T23:37:54.370Z,24.80
2017-05-29T23:40:22.304Z,24.80
2017-05-29T23:42:51.423Z,24.80
2017-05-29T23:45:19.769Z,24.70
2017-05-29T23:47:48.091Z,24.70
2017-05-29T23:52:45.723Z,24.70
2017-05-29T23:56:54.219Z,24.70
2017-05-29T23:59:22.171Z,24.60
